Terminal Aerodrome Forecast
Issued by NWS

Current Version | Previous Version | Graphics & Text | Print | Product List | Glossary On
Versions: 1 2 3 4 5 6 7 8 9 10 11 12 13 14 15 16 17 18 19
000
FTUS41 KPBZ 011700
TAFMGW
TAF
KMGW 011730Z 0118/0218 20007KT 4SM -RA SCT007 OVC015
      TEMPO 0118/0121 3SM -SNRA OVC007
     FM020500 26005KT 1SM -SN OVC010
     FM020700 27010KT 3SM -SN OVC015
     FM020900 28008KT 6SM -SN OVC020
     FM021300 27007KT P6SM OVC025=

USA.gov is the U.S. government's official web portal to all federal, state and local government web resources and services.